createdAt,value
2023-05-10T00:02:05.343Z,13.04
2023-05-10T00:04:33.283Z,13.03
2023-05-10T00:07:01.220Z,13.01
2023-05-10T00:09:29.381Z,12.99
2023-05-10T00:11:57.298Z,12.97
2023-05-10T00:14:25.193Z,12.95
2023-05-10T00:16:53.254Z,12.96
2023-05-10T00:19:21.494Z,12.95
2023-05-10T00:21:49.529Z,12.97
2023-05-10T00:24:17.395Z,12.93
2023-05-10T00:26:45.256Z,12.91
2023-05-10T00:29:13.078Z,12.90
2023-05-10T00:31:40.913Z,12.89
2023-05-10T00:34:08.783Z,12.86
2023-05-10T00:36:36.658Z,12.81
2023-05-10T00:39:05.852Z,12.77
2023-05-10T00:41:35.055Z,12.77
2023-05-10T00:44:04.369Z,12.74
2023-05-10T00:46:32.774Z,12.73
2023-05-10T00:49:00.738Z,12.74
2023-05-10T00:51:28.765Z,12.71
2023-05-10T00:53:58.350Z,12.68
2023-05-10T00:56:27.551Z,12.68
2023-05-10T00:58:55.563Z,12.69
2023-05-10T01:01:23.689Z,12.65
2023-05-10T01:03:52.111Z,12.61
2023-05-10T01:06:20.049Z,12.60
2023-05-10T01:08:48.019Z,12.59
2023-05-10T01:11:16.162Z,12.59
2023-05-10T01:13:47.423Z,12.56
2023-05-10T01:16:15.812Z,12.54
2023-05-10T01:18:45.645Z,12.53
2023-05-10T01:21:46.934Z,12.52
2023-05-10T01:24:23.887Z,12.52
2023-05-10T01:26:57.519Z,12.51
2023-05-10T01:30:15.596Z,12.49
2023-05-10T01:33:08.141Z,12.50
2023-05-10T01:35:45.455Z,12.49
2023-05-10T01:38:15.926Z,12.49
2023-05-10T01:41:07.412Z,12.48
2023-05-10T01:43:42.426Z,12.47
2023-05-10T01:46:14.842Z,12.47
2023-05-10T01:48:49.576Z,12.46
2023-05-10T01:51:26.138Z,12.45
2023-05-10T01:54:03.118Z,12.48
2023-05-10T01:56:34.422Z,12.48
2023-05-10T01:59:06.205Z,12.49
2023-05-10T02:01:35.876Z,12.49
2023-05-10T02:04:05.305Z,12.51
2023-05-10T02:06:34.974Z,12.52
2023-05-10T02:09:03.996Z,12.52
2023-05-10T02:11:33.295Z,12.52
2023-05-10T02:14:02.687Z,12.51
2023-05-10T02:16:33.046Z,12.53
2023-05-10T02:19:03.781Z,12.54
2023-05-10T02:21:33.191Z,12.50
2023-05-10T02:24:04.116Z,12.51
2023-05-10T02:26:35.153Z,12.52
2023-05-10T02:29:05.588Z,12.52
2023-05-10T02:31:35.775Z,12.52
2023-05-10T02:34:05.946Z,12.55
2023-05-10T02:36:34.463Z,12.53
2023-05-10T02:39:04.267Z,12.52
2023-05-10T02:41:34.690Z,12.53
2023-05-10T02:44:05.208Z,12.52
2023-05-10T02:46:33.383Z,12.50
2023-05-10T02:49:01.481Z,12.51
2023-05-10T02:51:34.361Z,12.52
2023-05-10T02:54:10.396Z,12.54
2023-05-10T02:56:42.995Z,12.54
2023-05-10T02:59:10.963Z,12.53
2023-05-10T03:01:38.918Z,12.53
2023-05-10T03:04:07.034Z,12.52
2023-05-10T03:06:35.203Z,12.54
2023-05-10T03:09:04.782Z,12.55
2023-05-10T03:11:49.529Z,12.54
2023-05-10T03:14:32.620Z,12.50
2023-05-10T03:17:12.819Z,12.49
2023-05-10T03:19:58.654Z,12.47
2023-05-10T03:22:34.026Z,12.47
2023-05-10T03:25:06.863Z,12.47
2023-05-10T03:27:36.285Z,12.46
2023-05-10T03:30:05.042Z,12.46
2023-05-10T03:32:35.225Z,12.48
2023-05-10T03:35:04.558Z,12.49
2023-05-10T03:37:32.472Z,12.48
2023-05-10T03:40:00.379Z,12.49
2023-05-10T03:42:28.298Z,12.48
2023-05-10T03:44:56.670Z,12.50
2023-05-10T03:47:24.752Z,12.51
2023-05-10T03:49:52.636Z,12.52
2023-05-10T03:52:20.552Z,12.51
2023-05-10T03:54:48.418Z,12.54
2023-05-10T03:57:16.313Z,12.55
2023-05-10T03:59:44.177Z,12.57
2023-05-10T04:02:12.206Z,12.57
2023-05-10T04:04:40.188Z,12.59
2023-05-10T04:07:08.128Z,12.59
2023-05-10T04:09:36.059Z,12.59
2023-05-10T04:12:04.670Z,12.59
2023-05-10T04:14:32.617Z,12.60
2023-05-10T04:17:00.532Z,12.60
2023-05-10T04:19:32.543Z,12.61
2023-05-10T04:22:01.147Z,12.62
2023-05-10T04:24:29.054Z,12.64
2023-05-10T04:26:57.969Z,12.67
2023-05-10T04:29:25.983Z,12.69
2023-05-10T04:31:53.854Z,12.72
2023-05-10T04:34:23.354Z,12.73
2023-05-10T04:36:51.291Z,12.72
2023-05-10T04:39:19.162Z,12.74
2023-05-10T04:41:47.259Z,12.70
2023-05-10T04:44:15.744Z,12.72
2023-05-10T04:46:43.776Z,12.70
2023-05-10T04:49:11.764Z,12.70
2023-05-10T04:51:39.769Z,12.68
2023-05-10T04:54:07.854Z,12.70
2023-05-10T04:56:35.796Z,12.66
2023-05-10T04:59:03.802Z,12.64
2023-05-10T05:01:31.814Z,12.69
2023-05-10T05:04:01.565Z,12.68
2023-05-10T05:06:29.627Z,12.68
2023-05-10T05:08:57.548Z,12.71
2023-05-10T05:11:25.574Z,12.72
2023-05-10T05:13:53.869Z,12.73
2023-05-10T05:16:21.738Z,12.76
2023-05-10T05:18:49.609Z,12.78
2023-05-10T05:21:18.692Z,12.79
2023-05-10T05:23:47.086Z,12.80
2023-05-10T05:26:15.085Z,12.83
2023-05-10T05:28:42.980Z,12.82
2023-05-10T05:31:11.539Z,12.83
2023-05-10T05:33:40.507Z,12.83
2023-05-10T05:36:08.757Z,12.81
2023-05-10T05:38:36.676Z,12.85
2023-05-10T05:41:05.308Z,12.87
2023-05-10T05:43:33.222Z,12.86
2023-05-10T05:46:01.393Z,12.87
2023-05-10T05:48:29.282Z,12.84
2023-05-10T05:50:58.914Z,12.84
2023-05-10T05:53:26.885Z,12.80
2023-05-10T05:56:00.049Z,12.79
2023-05-10T05:58:28.357Z,12.80
2023-05-10T06:00:56.360Z,12.80
2023-05-10T06:03:24.356Z,12.79
2023-05-10T06:05:52.296Z,12.78
2023-05-10T06:08:20.198Z,12.79
2023-05-10T06:10:48.381Z,12.78
2023-05-10T06:13:16.276Z,12.78
2023-05-10T06:15:44.276Z,12.78
2023-05-10T06:18:12.302Z,12.79
2023-05-10T06:20:40.225Z,12.80
2023-05-10T06:23:08.262Z,12.79
2023-05-10T06:25:36.189Z,12.80
2023-05-10T06:28:04.390Z,12.78
2023-05-10T06:30:32.396Z,12.83
2023-05-10T06:33:00.508Z,12.85
2023-05-10T06:35:28.496Z,12.89
2023-05-10T06:37:57.089Z,12.91
2023-05-10T06:40:25.133Z,12.97
2023-05-10T06:42:53.544Z,13.03
2023-05-10T06:45:21.575Z,13.04
2023-05-10T06:47:49.589Z,13.09
2023-05-10T06:50:17.799Z,13.14
2023-05-10T06:52:45.919Z,13.18
2023-05-10T06:55:14.186Z,13.18
2023-05-10T06:57:42.370Z,13.23
2023-05-10T07:00:12.021Z,13.20
2023-05-10T07:02:39.995Z,13.19
2023-05-10T07:05:08.419Z,13.18
2023-05-10T07:07:36.581Z,13.23
2023-05-10T07:10:05.147Z,13.24
2023-05-10T07:12:33.368Z,13.25
2023-05-10T07:15:01.423Z,13.29
2023-05-10T07:17:29.423Z,13.40
2023-05-10T07:19:57.384Z,13.43
2023-05-10T07:22:25.294Z,13.39
2023-05-10T07:24:53.228Z,13.44
2023-05-10T07:27:21.148Z,13.49
2023-05-10T07:29:49.025Z,13.51
2023-05-10T07:32:16.933Z,13.50
2023-05-10T07:34:44.942Z,13.56
2023-05-10T07:37:12.779Z,13.56
2023-05-10T07:39:40.747Z,13.60
2023-05-10T07:42:08.614Z,13.62
2023-05-10T07:44:39.280Z,13.65
2023-05-10T07:47:07.146Z,13.60
2023-05-10T07:49:35.046Z,13.65
2023-05-10T07:52:02.985Z,13.68
2023-05-10T07:54:30.900Z,13.71
2023-05-10T07:56:58.830Z,13.78
2023-05-10T07:59:26.775Z,13.75
2023-05-10T08:01:54.745Z,13.80
2023-05-10T08:04:22.819Z,13.82
2023-05-10T08:06:50.882Z,13.80
2023-05-10T08:09:20.033Z,13.78
2023-05-10T08:11:47.960Z,13.86
2023-05-10T08:14:15.869Z,13.89
2023-05-10T08:16:43.715Z,13.89
2023-05-10T08:19:11.747Z,13.85
2023-05-10T08:21:39.807Z,13.86
2023-05-10T08:24:08.113Z,13.84
2023-05-10T08:26:36.087Z,13.77
2023-05-10T08:29:04.121Z,13.72
2023-05-10T08:31:32.189Z,13.68
2023-05-10T08:34:00.271Z,13.56
2023-05-10T08:36:28.811Z,13.53
2023-05-10T08:38:57.171Z,13.51
2023-05-10T08:41:26.858Z,13.54
2023-05-10T08:43:56.161Z,13.59
2023-05-10T08:46:25.284Z,13.61
2023-05-10T08:48:54.401Z,13.62
2023-05-10T08:51:29.013Z,13.60
2023-05-10T08:53:57.760Z,13.63
2023-05-10T08:56:26.436Z,13.71
2023-05-10T08:58:54.480Z,13.76
2023-05-10T09:01:23.663Z,13.80
2023-05-10T09:03:52.914Z,13.84
2023-05-10T09:06:21.062Z,13.92
2023-05-10T09:08:50.026Z,14.02
2023-05-10T09:11:18.788Z,14.01
2023-05-10T09:13:47.038Z,14.02
2023-05-10T09:18:48.209Z,14.13
2023-05-10T09:21:16.247Z,14.22
2023-05-10T09:23:49.121Z,14.33
2023-05-10T09:26:17.391Z,14.37
2023-05-10T09:28:56.754Z,14.50
2023-05-10T09:31:24.913Z,14.51
2023-05-10T09:33:53.744Z,14.58
2023-05-10T09:36:21.795Z,14.67
2023-05-10T09:38:54.908Z,14.76
2023-05-10T09:41:24.791Z,14.79
2023-05-10T09:43:57.466Z,14.88
2023-05-10T09:46:26.611Z,14.89
2023-05-10T09:48:54.527Z,14.97
2023-05-10T09:51:26.705Z,14.96
2023-05-10T09:54:15.607Z,14.98
2023-05-10T09:56:44.119Z,15.01
2023-05-10T09:59:13.979Z,15.00
2023-05-10T10:01:42.830Z,15.01
2023-05-10T10:04:12.002Z,14.97
2023-05-10T10:06:43.721Z,14.97
2023-05-10T10:09:11.982Z,15.08
2023-05-10T10:11:41.394Z,15.11
2023-05-10T10:14:09.214Z,15.17
2023-05-10T10:16:39.925Z,15.16
2023-05-10T10:19:14.969Z,15.25
2023-05-10T10:21:43.042Z,15.24
2023-05-10T10:24:10.908Z,15.21
2023-05-10T10:26:45.001Z,15.21
2023-05-10T10:29:25.750Z,15.23
2023-05-10T10:32:32.554Z,15.33
2023-05-10T10:35:01.472Z,15.43
2023-05-10T10:37:46.412Z,15.54
2023-05-10T10:40:35.142Z,15.55
2023-05-10T10:43:29.292Z,15.65
2023-05-10T10:46:17.605Z,15.63
2023-05-10T10:49:13.320Z,15.58
2023-05-10T10:51:42.118Z,15.49
2023-05-10T10:54:14.049Z,15.47
2023-05-10T10:56:41.914Z,15.44
2023-05-10T10:59:10.624Z,15.39
2023-05-10T11:01:38.829Z,15.41
2023-05-10T11:04:06.751Z,15.46
2023-05-10T11:06:36.562Z,15.49
2023-05-10T11:09:09.495Z,15.51
2023-05-10T11:11:57.738Z,15.53
2023-05-10T11:14:25.979Z,15.61
2023-05-10T11:16:54.232Z,15.71
2023-05-10T11:19:22.491Z,15.76
2023-05-10T11:22:13.678Z,15.80
2023-05-10T11:24:41.715Z,15.79
2023-05-10T11:27:10.142Z,15.75
2023-05-10T11:29:37.967Z,15.72
2023-05-10T11:32:10.399Z,15.73
2023-05-10T11:34:38.302Z,15.62
2023-05-10T11:37:06.247Z,15.59
2023-05-10T11:39:35.819Z,15.54
2023-05-10T11:42:03.722Z,15.55
2023-05-10T11:44:33.672Z,15.52
2023-05-10T11:47:05.380Z,15.53
2023-05-10T11:49:33.514Z,15.55
2023-05-10T11:52:09.414Z,15.57
2023-05-10T11:54:37.556Z,15.59
2023-05-10T11:57:06.281Z,15.63
2023-05-10T11:59:34.417Z,15.61
2023-05-10T12:02:02.719Z,15.56
2023-05-10T12:04:31.699Z,15.60
2023-05-10T12:06:59.792Z,15.60
2023-05-10T12:09:42.527Z,15.61
2023-05-10T12:12:12.198Z,15.63
2023-05-10T12:14:40.559Z,15.70
2023-05-10T12:17:08.505Z,15.79
2023-05-10T12:19:40.938Z,15.77
2023-05-10T12:22:08.867Z,15.78
2023-05-10T12:24:38.398Z,15.81
2023-05-10T12:27:13.121Z,15.82
2023-05-10T12:29:46.823Z,15.84
2023-05-10T12:32:14.823Z,15.78
2023-05-10T12:34:42.723Z,15.84
2023-05-10T12:37:10.632Z,15.81
2023-05-10T12:39:46.731Z,15.81
2023-05-10T12:42:14.714Z,15.87
2023-05-10T12:44:42.747Z,15.90
2023-05-10T12:47:10.829Z,15.91
2023-05-10T12:49:38.858Z,15.91
2023-05-10T12:52:06.833Z,15.96
2023-05-10T12:54:34.848Z,16.07
2023-05-10T12:57:02.731Z,16.12
2023-05-10T12:59:30.651Z,16.09
2023-05-10T13:01:59.838Z,16.14
2023-05-10T13:04:28.117Z,16.16
2023-05-10T13:06:58.476Z,16.17
2023-05-10T13:09:27.398Z,16.16
2023-05-10T13:11:58.203Z,16.18
2023-05-10T13:14:27.116Z,16.22
2023-05-10T13:16:55.253Z,16.22
2023-05-10T13:19:23.430Z,16.22
2023-05-10T13:21:51.789Z,16.17
2023-05-10T13:24:20.033Z,16.16
2023-05-10T13:26:47.929Z,16.21
2023-05-10T13:29:16.016Z,16.25
2023-05-10T13:31:44.025Z,16.28
2023-05-10T13:34:12.004Z,16.35
2023-05-10T13:36:40.546Z,16.41
2023-05-10T13:39:08.494Z,16.46
2023-05-10T13:41:36.414Z,16.45
2023-05-10T13:44:04.392Z,16.50
2023-05-10T13:46:33.324Z,16.58
2023-05-10T13:49:01.374Z,16.68
2023-05-10T13:51:29.313Z,16.68
2023-05-10T13:53:57.372Z,16.69
2023-05-10T13:56:25.319Z,16.67
2023-05-10T13:58:53.607Z,16.66
2023-05-10T14:01:21.793Z,16.60
2023-05-10T14:03:50.559Z,16.56
2023-05-10T14:06:18.564Z,16.59
2023-05-10T14:08:46.487Z,16.57
2023-05-10T14:11:15.286Z,16.52
2023-05-10T14:13:43.357Z,16.50
2023-05-10T14:16:11.296Z,16.52
2023-05-10T14:18:39.446Z,16.55
2023-05-10T14:21:07.764Z,16.53
2023-05-10T14:23:35.699Z,16.48
2023-05-10T14:26:03.800Z,16.41
2023-05-10T14:28:31.834Z,16.41
2023-05-10T14:31:00.292Z,16.38
2023-05-10T14:33:28.277Z,16.39
2023-05-10T14:35:59.114Z,16.35
2023-05-10T14:38:27.007Z,16.36
2023-05-10T14:40:54.985Z,16.26
2023-05-10T14:43:22.973Z,16.21
2023-05-10T14:45:51.001Z,16.22
2023-05-10T14:48:19.869Z,16.21
2023-05-10T14:50:48.356Z,16.19
2023-05-10T14:53:16.223Z,16.18
2023-05-10T14:55:44.141Z,16.14
2023-05-10T14:58:12.050Z,16.13
2023-05-10T15:00:40.084Z,16.07
2023-05-10T15:03:08.725Z,16.00
2023-05-10T15:05:36.950Z,15.99
2023-05-10T15:08:06.830Z,15.96
2023-05-10T15:10:35.331Z,15.94
2023-05-10T15:13:03.569Z,15.91
2023-05-10T15:15:31.546Z,15.93
2023-05-10T15:17:59.614Z,15.94
2023-05-10T15:20:27.616Z,15.94
2023-05-10T15:22:55.578Z,15.90
2023-05-10T15:25:23.824Z,15.90
2023-05-10T15:27:52.178Z,15.86
2023-05-10T15:30:20.112Z,15.86
2023-05-10T15:32:47.966Z,15.88
2023-05-10T15:35:16.723Z,15.88
2023-05-10T15:37:44.713Z,15.84
2023-05-10T15:40:12.996Z,15.84
2023-05-10T15:42:40.907Z,15.84
2023-05-10T15:45:09.445Z,15.84
2023-05-10T15:47:37.331Z,15.84
2023-05-10T15:50:05.744Z,15.83
2023-05-10T15:52:33.685Z,15.81
2023-05-10T15:55:01.663Z,15.82
2023-05-10T15:57:29.720Z,15.81
2023-05-10T15:59:57.682Z,15.79
2023-05-10T16:02:25.761Z,15.80
2023-05-10T16:04:53.732Z,15.80
2023-05-10T16:07:21.673Z,15.80
2023-05-10T16:09:50.877Z,15.80
2023-05-10T16:12:18.834Z,15.79
2023-05-10T16:14:48.204Z,15.80
2023-05-10T16:17:19.345Z,15.77
2023-05-10T16:19:48.281Z,15.81
2023-05-10T16:22:16.416Z,15.81
2023-05-10T16:24:44.364Z,15.81
2023-05-10T16:27:13.932Z,15.80
2023-05-10T16:29:41.978Z,15.76
2023-05-10T16:32:09.878Z,15.71
2023-05-10T16:34:37.953Z,15.68
2023-05-10T16:37:05.882Z,15.66
2023-05-10T16:39:33.866Z,15.66
2023-05-10T16:42:02.471Z,15.63
2023-05-10T16:44:30.476Z,15.62
2023-05-10T16:46:58.631Z,15.54
2023-05-10T16:49:27.725Z,15.50
2023-05-10T16:51:55.775Z,15.49
2023-05-10T16:54:24.141Z,15.44
2023-05-10T16:56:52.328Z,15.41
2023-05-10T16:59:20.203Z,15.38
2023-05-10T17:01:48.372Z,15.36
2023-05-10T17:04:17.978Z,15.30
2023-05-10T17:06:45.957Z,15.27
2023-05-10T17:09:13.930Z,15.26
2023-05-10T17:11:44.672Z,15.20
2023-05-10T17:14:12.789Z,15.15
2023-05-10T17:16:40.718Z,15.11
2023-05-10T17:19:09.587Z,15.07
2023-05-10T17:21:38.069Z,15.05
2023-05-10T17:24:06.297Z,15.04
2023-05-10T17:26:35.936Z,15.02
2023-05-10T17:29:03.793Z,14.99
2023-05-10T17:31:31.692Z,14.93
2023-05-10T17:33:59.798Z,14.91
2023-05-10T17:36:27.893Z,14.85
2023-05-10T17:38:55.988Z,14.80
2023-05-10T17:41:24.648Z,14.74
2023-05-10T17:43:52.673Z,14.70
2023-05-10T17:46:20.858Z,14.69
2023-05-10T17:48:49.016Z,14.61
2023-05-10T17:51:17.039Z,14.56
2023-05-10T17:53:46.029Z,14.52
2023-05-10T17:56:13.961Z,14.48
2023-05-10T17:58:41.961Z,14.42
2023-05-10T18:01:09.928Z,14.38
2023-05-10T18:03:37.967Z,14.33
2023-05-10T18:06:06.144Z,14.28
2023-05-10T18:08:34.470Z,14.27
2023-05-10T18:11:02.784Z,14.23
2023-05-10T18:13:30.814Z,14.21
2023-05-10T18:15:58.737Z,14.15
2023-05-10T18:18:26.927Z,14.08
2023-05-10T18:20:58.160Z,14.03
2023-05-10T18:23:26.349Z,14.01
2023-05-10T18:25:54.515Z,13.94
2023-05-10T18:28:22.456Z,13.87
2023-05-10T18:30:50.515Z,13.81
2023-05-10T18:33:18.465Z,13.74
2023-05-10T18:35:46.495Z,13.66
2023-05-10T18:38:15.096Z,13.61
2023-05-10T18:40:43.222Z,13.53
2023-05-10T18:43:11.273Z,13.44
2023-05-10T18:45:40.476Z,13.29
2023-05-10T18:48:09.196Z,13.12
2023-05-10T18:50:37.210Z,12.98
2023-05-10T18:53:05.152Z,12.84
2023-05-10T18:55:33.093Z,12.64
2023-05-10T18:58:01.696Z,12.56
2023-05-10T19:00:29.669Z,12.49
2023-05-10T19:02:57.643Z,12.42
2023-05-10T19:05:31.183Z,12.36
2023-05-10T19:07:59.088Z,12.31
2023-05-10T19:10:26.987Z,12.26
2023-05-10T19:12:55.078Z,12.21
2023-05-10T19:15:23.191Z,12.18
2023-05-10T19:17:51.484Z,12.16
2023-05-10T19:20:19.534Z,12.14
2023-05-10T19:25:25.733Z,12.13
2023-05-10T19:27:55.696Z,12.12
2023-05-10T19:30:24.470Z,12.08
2023-05-10T19:32:52.602Z,12.07
2023-05-10T19:35:20.675Z,12.05
2023-05-10T19:37:48.839Z,12.05
2023-05-10T19:40:17.257Z,12.04
2023-05-10T19:42:45.295Z,12.02
2023-05-10T19:45:13.626Z,11.97
2023-05-10T19:47:43.211Z,11.96
2023-05-10T19:50:11.359Z,11.94
2023-05-10T19:52:39.255Z,11.91
2023-05-10T19:55:07.738Z,11.90
2023-05-10T19:57:35.641Z,11.90
2023-05-10T20:00:03.815Z,11.89
2023-05-10T20:02:31.883Z,11.87
2023-05-10T20:04:59.891Z,11.86
2023-05-10T20:07:27.869Z,11.90
2023-05-10T20:09:56.140Z,11.90
2023-05-10T20:12:24.265Z,11.89
2023-05-10T20:14:52.226Z,11.89
2023-05-10T20:17:20.148Z,11.91
2023-05-10T20:19:48.574Z,11.91
2023-05-10T20:22:16.493Z,11.93
2023-05-10T20:24:44.504Z,11.92
2023-05-10T20:27:12.454Z,11.92
2023-05-10T20:29:40.444Z,11.92
2023-05-10T20:32:08.512Z,11.91
2023-05-10T20:34:36.896Z,11.93
2023-05-10T20:37:05.048Z,11.91
2023-05-10T20:39:33.001Z,11.91
2023-05-10T20:42:01.116Z,11.89
2023-05-10T20:44:28.992Z,11.91
2023-05-10T20:46:57.016Z,11.92
2023-05-10T20:49:25.053Z,11.92
2023-05-10T20:51:53.061Z,11.91
2023-05-10T20:54:21.693Z,11.91
2023-05-10T20:56:49.586Z,11.91
2023-05-10T20:59:17.523Z,11.92
2023-05-10T21:01:46.588Z,11.93
2023-05-10T21:04:14.585Z,11.95
2023-05-10T21:06:44.375Z,11.96
2023-05-10T21:09:12.199Z,11.99
2023-05-10T21:11:40.094Z,11.96
2023-05-10T21:14:09.100Z,11.96
2023-05-10T21:16:37.694Z,11.98
2023-05-10T21:19:05.727Z,11.96
2023-05-10T21:21:33.788Z,11.92
2023-05-10T21:24:01.739Z,11.90
2023-05-10T21:26:30.024Z,11.89
2023-05-10T21:28:58.014Z,11.87
2023-05-10T21:31:26.065Z,11.87
2023-05-10T21:33:53.987Z,11.89
2023-05-10T21:36:21.990Z,11.89
2023-05-10T21:38:51.765Z,11.90
2023-05-10T21:41:19.816Z,11.86
2023-05-10T21:43:47.752Z,11.83
2023-05-10T21:46:16.762Z,11.85
2023-05-10T21:48:44.746Z,11.85
2023-05-10T21:51:13.114Z,11.86
2023-05-10T21:53:41.734Z,11.86
2023-05-10T21:56:09.659Z,11.86
2023-05-10T21:58:37.837Z,11.87
2023-05-10T22:01:05.869Z,11.86
2023-05-10T22:03:34.001Z,11.86
2023-05-10T22:06:01.973Z,11.87
2023-05-10T22:08:29.916Z,11.87
2023-05-10T22:10:57.771Z,11.87
2023-05-10T22:13:25.736Z,11.86
2023-05-10T22:15:53.749Z,11.86
2023-05-10T22:18:22.386Z,11.87
2023-05-10T22:20:50.279Z,11.85
2023-05-10T22:23:18.342Z,11.83
2023-05-10T22:25:46.161Z,11.80
2023-05-10T22:28:14.176Z,11.78
2023-05-10T22:30:44.128Z,11.75
2023-05-10T22:33:12.112Z,11.70
2023-05-10T22:35:40.184Z,11.67
2023-05-10T22:38:08.166Z,11.61
2023-05-10T22:40:36.128Z,11.58
2023-05-10T22:43:04.026Z,11.53
2023-05-10T22:45:32.044Z,11.50
2023-05-10T22:48:01.106Z,11.51
2023-05-10T22:50:31.011Z,11.50
2023-05-10T22:52:58.870Z,11.44
2023-05-10T22:55:26.953Z,11.43
2023-05-10T22:57:55.239Z,11.43
2023-05-10T23:00:24.429Z,11.44
2023-05-10T23:02:53.047Z,11.44
2023-05-10T23:05:21.200Z,11.42
2023-05-10T23:07:54.238Z,11.43
2023-05-10T23:10:22.392Z,11.43
2023-05-10T23:12:50.347Z,11.43
2023-05-10T23:15:18.281Z,11.42
2023-05-10T23:17:46.314Z,11.38
2023-05-10T23:20:14.693Z,11.41
2023-05-10T23:22:42.624Z,11.40
2023-05-10T23:25:11.155Z,11.37
2023-05-10T23:27:39.069Z,11.39
2023-05-10T23:30:07.593Z,11.38
2023-05-10T23:32:35.591Z,11.38
2023-05-10T23:35:03.523Z,11.35
2023-05-10T23:37:31.423Z,11.33
2023-05-10T23:39:59.399Z,11.34
2023-05-10T23:42:27.350Z,11.31
2023-05-10T23:44:55.322Z,11.27
2023-05-10T23:47:23.203Z,11.27
2023-05-10T23:49:51.595Z,11.26
2023-05-10T23:52:19.558Z,11.27
2023-05-10T23:54:47.519Z,11.27
2023-05-10T23:57:15.787Z,11.24
2023-05-10T23:59:43.788Z,11.21
